Time;durP1;ratioP1;P1;durP2;ratioP2;P2;SDS_P1;SDS_P2;PMS_P1;PMS_P2;Temp;Humidity;BMP_temperature;BMP_pressure;BME280_temperature;BME280_humidity;BME280_pressure;Samples;Min_cycle;Max_cycle;Signal;HPM_P1;HPM_P2
2024/01/19 00:01:38;;;;;;;11.98;2.00;;;;;;;0.67;100.00;101451.47;5096567;28;20072;-81
2024/01/19 00:04:03;;;;;;;8.90;1.65;;;;;;;0.74;100.00;101449.47;5095933;28;20024;-81
2024/01/19 00:06:29;;;;;;;5.32;1.58;;;;;;;0.76;100.00;101452.88;5095758;28;20046;-81
2024/01/19 00:08:54;;;;;;;9.00;2.15;;;;;;;0.72;100.00;101457.41;5096197;28;20028;-81
2024/01/19 00:11:19;;;;;;;7.22;1.77;;;;;;;0.63;100.00;101463.84;5095776;28;20175;-81
2024/01/19 00:13:45;;;;;;;5.50;1.35;;;;;;;0.65;100.00;101455.94;5095873;28;20103;-81
2024/01/19 00:16:10;;;;;;;8.20;1.52;;;;;;;0.72;100.00;101459.16;5078063;28;20487;-81
2024/01/19 00:18:36;;;;;;;5.18;1.60;;;;;;;0.73;100.00;101455.63;5095942;28;20108;-81
2024/01/19 00:21:01;;;;;;;5.20;1.83;;;;;;;0.72;100.00;101453.91;5096181;28;20028;-81
2024/01/19 00:23:27;;;;;;;5.85;2.20;;;;;;;0.64;100.00;101455.09;5095763;28;20510;-80
2024/01/19 00:25:52;;;;;;;6.43;1.88;;;;;;;0.67;100.00;101462.81;5077294;28;20452;-82
2024/01/19 00:28:17;;;;;;;4.32;1.90;;;;;;;0.62;100.00;101461.28;5094528;28;20024;-81
2024/01/19 00:30:43;;;;;;;7.50;1.52;;;;;;;0.64;100.00;101460.31;5095545;28;20032;-81
2024/01/19 00:33:08;;;;;;;7.97;1.77;;;;;;;0.59;100.00;101457.00;5095468;28;20384;-81
2024/01/19 00:35:34;;;;;;;7.63;1.40;;;;;;;0.56;100.00;101458.91;5095506;28;20046;-81
2024/01/19 00:37:59;;;;;;;8.32;1.55;;;;;;;0.56;100.00;101459.75;5095600;28;20028;-82
2024/01/19 00:40:24;;;;;;;3.42;1.55;;;;;;;0.52;100.00;101455.53;5077043;28;20115;-78
2024/01/19 00:42:50;;;;;;;4.57;1.38;;;;;;;0.53;100.00;101465.94;5095550;28;20032;-82
2024/01/19 00:45:16;;;;;;;8.65;1.65;;;;;;;0.51;100.00;101466.94;5095634;28;20429;-81
2024/01/19 00:47:41;;;;;;;7.38;1.55;;;;;;;0.45;100.00;101473.25;5094814;28;20032;-81
2024/01/19 00:50:10;;;;;;;8.25;1.52;;;;;;;0.46;100.00;101466.25;5076660;28;20028;-82
2024/01/19 00:52:36;;;;;;;2.35;1.23;;;;;;;0.53;100.00;101467.72;5076674;28;20070;-82
2024/01/19 00:55:02;;;;;;;6.85;1.50;;;;;;;0.59;100.00;101471.88;5095089;28;20039;-81
2024/01/19 00:57:27;;;;;;;8.35;1.45;;;;;;;0.56;100.00;101472.84;5076896;28;20028;-81
2024/01/19 00:59:54;;;;;;;6.25;1.75;;;;;;;0.53;100.00;101481.66;5076307;28;20113;-80
2024/01/19 01:02:20;;;;;;;5.15;1.50;;;;;;;0.53;100.00;101478.19;5094503;28;20028;-81
2024/01/19 01:04:45;;;;;;;10.90;2.10;;;;;;;0.56;100.00;101485.09;5095113;28;20024;-81
2024/01/19 01:07:11;;;;;;;5.50;2.08;;;;;;;0.60;100.00;101484.03;5076431;28;20063;-78
2024/01/19 01:09:36;;;;;;;15.07;2.20;;;;;;;0.64;100.00;101486.50;5076364;28;20028;-81
2024/01/19 01:12:02;;;;;;;6.75;2.20;;;;;;;0.67;100.00;101499.50;5094690;28;20365;-81
2024/01/19 01:14:28;;;;;;;9.48;2.00;;;;;;;0.62;100.00;101498.78;5076816;28;20083;-79
2024/01/19 01:16:53;;;;;;;9.07;2.13;;;;;;;0.60;100.00;101495.41;5094574;28;20030;-81
2024/01/19 01:19:18;;;;;;;12.40;2.50;;;;;;;0.64;100.00;101501.34;5094532;28;20053;-80
2024/01/19 01:21:44;;;;;;;9.93;2.85;;;;;;;0.65;100.00;101496.06;5076182;28;20124;-81
2024/01/19 01:24:09;;;;;;;5.07;2.60;;;;;;;0.69;100.00;101494.19;5093916;28;20024;-81
2024/01/19 01:26:35;;;;;;;9.98;2.50;;;;;;;0.69;100.00;101491.56;5094056;28;20043;-81
2024/01/19 01:29:00;;;;;;;5.32;2.50;;;;;;;0.72;100.00;101495.81;5094094;28;20048;-81
2024/01/19 01:31:25;;;;;;;6.78;2.53;;;;;;;0.74;100.00;101497.47;5094023;28;20096;-81
2024/01/19 01:33:51;;;;;;;7.10;2.58;;;;;;;0.70;100.00;101499.38;5094207;28;20039;-81
2024/01/19 01:36:16;;;;;;;8.80;2.83;;;;;;;0.67;100.00;101491.63;5076237;28;20028;-81
2024/01/19 01:38:41;;;;;;;6.85;2.50;;;;;;;0.68;100.00;101501.19;5094198;28;20117;-78
2024/01/19 01:41:07;;;;;;;4.60;2.33;;;;;;;0.72;100.00;101506.28;5094086;28;20055;-78
2024/01/19 01:43:32;;;;;;;8.88;3.13;;;;;;;0.71;100.00;101508.06;5059690;28;20031;-78
2024/01/19 01:45:58;;;;;;;6.68;2.55;;;;;;;0.62;100.00;101516.28;5094431;28;20022;-81
2024/01/19 01:48:24;;;;;;;7.50;2.40;;;;;;;0.56;100.00;101514.75;5076030;28;20040;-81
2024/01/19 01:50:50;;;;;;;11.95;3.17;;;;;;;0.58;100.00;101522.53;5094225;28;20444;-81
2024/01/19 01:53:18;;;;;;;10.27;2.60;;;;;;;0.56;100.00;101525.22;5093681;28;20030;-79
2024/01/19 01:55:44;;;;;;;7.43;2.50;;;;;;;0.56;100.00;101522.59;5094374;28;20134;-79
2024/01/19 01:58:10;;;;;;;13.95;3.65;;;;;;;0.56;100.00;101522.59;5093602;28;20543;-78
2024/01/19 02:00:37;;;;;;;6.75;2.55;;;;;;;0.56;100.00;101527.00;5093413;28;20474;-79
2024/01/19 02:03:03;;;;;;;9.38;2.72;;;;;;;0.54;100.00;101527.06;5093761;28;20024;-78
2024/01/19 02:05:29;;;;;;;6.53;2.53;;;;;;;0.58;100.00;101535.63;5093647;28;20028;-79
2024/01/19 02:07:54;;;;;;;7.93;2.47;;;;;;;0.55;100.00;101541.00;5093591;28;20054;-78
2024/01/19 02:10:20;;;;;;;9.25;2.33;;;;;;;0.51;100.00;101538.50;5092945;28;20023;-80
2024/01/19 02:12:46;;;;;;;12.48;2.33;;;;;;;0.52;100.00;101540.22;5093225;28;20108;-78
2024/01/19 02:15:19;;;;;;;9.43;2.45;;;;;;;0.48;100.00;101550.84;5058380;28;20024;-79
2024/01/19 02:17:45;;;;;;;8.95;2.50;;;;;;;0.43;100.00;101550.16;5093790;28;20063;-79
2024/01/19 02:20:11;;;;;;;10.52;2.47;;;;;;;0.47;100.00;101538.66;5058400;28;20427;-79
2024/01/19 02:22:38;;;;;;;14.05;2.92;;;;;;;0.55;100.00;101544.47;5093256;28;20039;-78
2024/01/19 02:25:04;;;;;;;9.63;2.22;;;;;;;0.59;100.00;101542.59;5093870;28;20058;-78
2024/01/19 02:27:30;;;;;;;12.65;2.45;;;;;;;0.58;100.00;101540.88;5093239;28;20028;-78
2024/01/19 02:29:55;;;;;;;6.05;2.35;;;;;;;0.61;100.00;101546.88;5093303;28;20035;-79
2024/01/19 02:32:20;;;;;;;5.13;2.72;;;;;;;0.67;100.00;101548.38;5092709;28;20032;-78
2024/01/19 02:34:46;;;;;;;9.55;2.85;;;;;;;0.74;100.00;101556.88;5093132;28;20341;-79
2024/01/19 02:37:12;;;;;;;18.17;2.75;;;;;;;0.70;100.00;101551.75;5074843;28;20409;-78
2024/01/19 02:39:38;;;;;;;11.68;3.35;;;;;;;0.72;100.00;101554.31;5093732;28;20024;-78
2024/01/19 02:42:03;;;;;;;8.95;3.03;;;;;;;0.66;100.00;101551.94;5093142;28;20031;-78
2024/01/19 02:44:29;;;;;;;16.17;3.22;;;;;;;0.64;100.00;101551.13;5092632;28;20031;-78
2024/01/19 02:46:54;;;;;;;10.57;3.15;;;;;;;0.62;100.00;101563.44;5092913;28;20071;-78
2024/01/19 02:49:19;;;;;;;6.20;2.38;;;;;;;0.64;100.00;101566.84;5092952;28;20031;-81
2024/01/19 02:51:48;;;;;;;11.32;2.80;;;;;;;0.60;100.00;101573.97;5092756;28;20031;-78
2024/01/19 02:54:13;;;;;;;9.88;2.90;;;;;;;0.58;100.00;101575.78;5092381;28;20127;-78
2024/01/19 02:56:38;;;;;;;20.40;3.40;;;;;;;0.62;100.00;101580.00;5093190;28;20111;-80
2024/01/19 02:59:04;;;;;;;11.60;2.80;;;;;;;0.65;100.00;101579.88;5092548;28;20392;-80
2024/01/19 03:01:29;;;;;;;8.05;2.88;;;;;;;0.65;100.00;101579.88;5074610;28;20028;-80
2024/01/19 03:03:54;;;;;;;11.23;3.55;;;;;;;0.57;100.00;101581.06;5092900;28;20039;-80
2024/01/19 03:06:20;;;;;;;11.45;3.22;;;;;;;0.52;100.00;101587.34;5074690;28;20024;-80
2024/01/19 03:08:45;;;;;;;8.98;2.80;;;;;;;0.51;100.00;101583.00;5074351;28;20471;-80
2024/01/19 03:11:11;;;;;;;15.60;3.35;;;;;;;0.51;100.00;101587.41;5092207;28;20110;-82
2024/01/19 03:13:36;;;;;;;13.35;2.70;;;;;;;0.52;100.00;101583.84;5092299;28;20023;-78
2024/01/19 03:16:06;;;;;;;6.80;2.33;;;;;;;0.53;100.00;101596.91;5092575;28;20429;-78
2024/01/19 03:18:31;;;;;;;7.70;2.20;;;;;;;0.53;100.00;101588.19;5092442;28;20032;-78
2024/01/19 03:20:56;;;;;;;6.68;2.15;;;;;;;0.59;100.00;101601.06;5057866;28;20027;-80
2024/01/19 03:23:22;;;;;;;5.82;2.25;;;;;;;0.57;100.00;101595.03;5091845;28;20024;-79
2024/01/19 03:25:47;;;;;;;12.45;2.78;;;;;;;0.56;100.00;101598.56;5092075;28;20028;-80
2024/01/19 03:28:13;;;;;;;13.02;3.53;;;;;;;0.62;100.00;101592.25;5074090;28;20046;-79
2024/01/19 03:30:38;;;;;;;7.68;3.05;;;;;;;0.59;100.00;101592.34;5092077;28;20051;-78
2024/01/19 03:33:03;;;;;;;12.02;2.20;;;;;;;0.59;100.00;101598.44;5091968;28;20032;-79
2024/01/19 03:35:29;;;;;;;11.90;2.38;;;;;;;0.62;100.00;101594.88;5092306;28;20027;-79
2024/01/19 03:37:54;;;;;;;9.55;2.30;;;;;;;0.65;100.00;101602.59;5092304;28;20028;-79
2024/01/19 03:40:20;;;;;;;15.00;2.75;;;;;;;0.65;100.00;101600.00;5092070;28;20055;-81
2024/01/19 03:42:46;;;;;;;11.75;2.35;;;;;;;0.62;100.00;101589.63;5091903;28;20038;-79
2024/01/19 03:45:11;;;;;;;5.38;2.30;;;;;;;0.59;100.00;101600.22;5092073;28;20025;-80
2024/01/19 03:47:36;;;;;;;17.25;2.67;;;;;;;0.52;100.00;101602.19;5091900;28;20457;-80
2024/01/19 03:50:05;;;;;;;11.65;1.88;;;;;;;0.49;100.00;101603.19;5073688;28;20027;-79
2024/01/19 03:52:31;;;;;;;9.23;2.30;;;;;;;0.43;100.00;101605.16;5092038;28;20354;-79
2024/01/19 03:54:56;;;;;;;8.38;2.20;;;;;;;0.38;100.00;101596.63;5073269;28;20044;-79
2024/01/19 03:57:21;;;;;;;8.93;2.15;;;;;;;0.33;100.00;101613.34;5091861;28;20035;-79
2024/01/19 03:59:47;;;;;;;8.35;2.47;;;;;;;0.40;100.00;101600.03;5091705;28;20447;-79
2024/01/19 04:02:12;;;;;;;3.97;1.70;;;;;;;0.55;100.00;101612.56;5091733;28;20024;-79
2024/01/19 04:04:37;;;;;;;14.00;2.75;;;;;;;0.64;100.00;101616.59;5073632;28;20063;-79
2024/01/19 04:07:03;;;;;;;7.68;2.30;;;;;;;0.75;100.00;101622.31;5091960;28;20085;-78
2024/01/19 04:09:28;;;;;;;14.77;2.55;;;;;;;0.79;100.00;101638.75;5073758;28;20032;-80
2024/01/19 04:11:53;;;;;;;7.22;1.58;;;;;;;0.75;100.00;101645.03;5092103;28;20040;-79
2024/01/19 04:14:19;;;;;;;8.15;1.50;;;;;;;0.59;100.00;101656.06;5073355;28;20043;-79
2024/01/19 04:16:44;;;;;;;12.13;1.50;;;;;;;0.45;100.00;101669.66;5091930;28;20118;-79
2024/01/19 04:19:10;;;;;;;10.27;1.75;;;;;;;0.35;100.00;101673.50;5091698;28;20036;-78
2024/01/19 04:21:35;;;;;;;5.85;1.42;;;;;;;0.24;100.00;101686.97;5074055;28;20500;-79
2024/01/19 04:24:01;;;;;;;3.67;1.35;;;;;;;0.13;100.00;101692.53;5091752;28;20044;-79
2024/01/19 04:26:30;;;;;;;7.72;2.20;;;;;;;0.06;100.00;101696.28;5091675;28;20089;-79
2024/01/19 04:28:55;;;;;;;7.13;1.42;;;;;;;-0.01;100.00;101684.28;5071978;28;20185;-78
2024/01/19 04:31:21;;;;;;;6.53;1.67;;;;;;;-0.08;100.00;101694.09;5091382;28;20066;-79
2024/01/19 04:33:47;;;;;;;5.03;1.13;;;;;;;-0.16;100.00;101695.25;5091724;28;20036;-78
2024/01/19 04:36:12;;;;;;;7.22;1.60;;;;;;;-0.29;100.00;101694.78;5076927;28;20078;-79
2024/01/19 04:38:38;;;;;;;8.75;2.08;;;;;;;-0.38;100.00;101695.94;5077908;28;20039;-79
2024/01/19 04:41:04;;;;;;;5.43;1.02;;;;;;;-0.47;100.00;101697.06;5095730;28;20081;-79
2024/01/19 04:43:30;;;;;;;9.38;1.40;;;;;;;-0.51;100.00;101708.50;5095053;28;20528;-78
2024/01/19 04:45:55;;;;;;;5.28;1.35;;;;;;;-0.52;100.00;101714.66;5077033;28;20040;-79
2024/01/19 04:48:21;;;;;;;5.97;1.02;;;;;;;-0.51;100.00;101718.13;5095285;28;20106;-79
2024/01/19 04:50:46;;;;;;;5.75;1.38;;;;;;;-0.49;100.00;101714.56;5095351;28;20366;-78
2024/01/19 04:53:11;;;;;;;8.00;1.60;;;;;;;-0.50;100.00;101707.63;5095802;28;20020;-78
2024/01/19 04:55:37;;;;;;;6.53;1.45;;;;;;;-0.55;100.00;101713.00;5095214;28;20433;-79
2024/01/19 04:58:03;;;;;;;4.70;1.10;;;;;;;-0.67;100.00;101722.94;5076808;28;20362;-79
2024/01/19 05:00:28;;;;;;;4.75;1.15;;;;;;;-0.80;100.00;101725.06;5095144;28;20051;-78
2024/01/19 05:02:54;;;;;;;10.90;1.35;;;;;;;-0.85;100.00;101724.34;5095138;28;20020;-78
2024/01/19 05:05:19;;;;;;;7.35;1.52;;;;;;;-0.86;100.00;101731.31;5095446;28;20064;-78
2024/01/19 05:07:44;;;;;;;9.77;1.20;;;;;;;-0.88;100.00;101738.38;5094710;28;20107;-79
2024/01/19 05:10:10;;;;;;;3.97;1.20;;;;;;;-0.93;100.00;101735.84;5094784;28;20456;-79
2024/01/19 05:12:35;;;;;;;4.30;1.48;;;;;;;-0.99;100.00;101740.41;5094868;28;20031;-79
2024/01/19 05:15:01;;;;;;;5.38;1.40;;;;;;;-1.07;100.00;101749.31;5094496;28;20093;-79
2024/01/19 05:17:26;;;;;;;4.13;1.27;;;;;;;-1.15;100.00;101745.19;5094852;28;20054;-78
2024/01/19 05:19:51;;;;;;;15.13;1.77;;;;;;;-1.26;100.00;101751.56;5094473;28;20090;-78
2024/01/19 05:22:17;;;;;;;11.73;1.50;;;;;;;-1.29;100.00;101754.25;5094052;28;20456;-78
2024/01/19 05:24:43;;;;;;;4.07;1.45;;;;;;;-1.34;100.00;101750.91;5094409;28;20114;-78
2024/01/19 05:27:09;;;;;;;8.63;1.50;;;;;;;-1.44;100.00;101759.88;5094364;28;20024;-78
2024/01/19 05:29:34;;;;;;;7.15;1.85;;;;;;;-1.50;100.00;101767.88;5094315;28;20047;-78
2024/01/19 05:32:00;;;;;;;7.30;1.48;;;;;;;-1.57;100.00;101768.91;5094632;28;20397;-79
2024/01/19 05:34:26;;;;;;;8.32;1.45;;;;;;;-1.64;100.00;101778.66;5094326;28;20314;-78
2024/01/19 05:36:52;;;;;;;7.80;1.45;;;;;;;-1.69;100.00;101772.69;5094324;28;20024;-79
2024/01/19 05:39:17;;;;;;;5.35;1.38;;;;;;;-1.80;100.00;101772.94;5094423;28;20382;-78
2024/01/19 05:41:42;;;;;;;4.10;1.50;;;;;;;-1.83;100.00;101779.09;5094150;28;20100;-79
2024/01/19 05:44:08;;;;;;;4.22;1.20;;;;;;;-1.77;100.00;101794.59;5093879;28;20095;-79
2024/01/19 05:46:33;;;;;;;10.40;1.60;;;;;;;-1.76;100.00;101790.25;5093887;28;20110;-78
2024/01/19 05:48:58;;;;;;;9.30;1.40;;;;;;;-1.68;100.00;101792.69;5093868;28;20330;-79
2024/01/19 05:51:24;;;;;;;6.18;1.45;;;;;;;-1.65;100.00;101809.09;5093423;28;20478;-78
2024/01/19 05:53:49;;;;;;;7.97;1.20;;;;;;;-1.64;100.00;101808.22;5094176;28;20508;-79
2024/01/19 05:56:15;;;;;;;11.05;1.25;;;;;;;-1.62;100.00;101810.78;5094352;28;20447;-79
2024/01/19 05:58:40;;;;;;;9.25;1.77;;;;;;;-1.65;100.00;101811.72;5093690;28;20024;-79
2024/01/19 06:01:06;;;;;;;6.70;1.10;;;;;;;-1.72;100.00;101823.19;5075766;28;20085;-79
2024/01/19 06:03:36;;;;;;;7.25;1.10;;;;;;;-1.71;100.00;101824.06;5093638;28;20364;-79
2024/01/19 06:06:02;;;;;;;8.40;1.33;;;;;;;-1.72;100.00;101824.94;5093684;28;20028;-79
2024/01/19 06:08:28;;;;;;;11.27;2.53;;;;;;;-1.76;100.00;101829.41;5093712;28;20028;-79
2024/01/19 06:10:54;;;;;;;3.53;1.40;;;;;;;-1.83;100.00;101820.84;5093274;28;20024;-79
2024/01/19 06:13:19;;;;;;;3.00;1.20;;;;;;;-1.95;100.00;101821.13;5093732;28;20043;-79
2024/01/19 06:15:44;;;;;;;7.97;1.23;;;;;;;-2.08;100.00;101827.50;5093445;28;20051;-80
2024/01/19 06:18:10;;;;;;;5.10;1.10;;;;;;;-2.21;100.00;101838.22;5093475;28;20028;-79
2024/01/19 06:20:41;;;;;;;7.15;1.25;;;;;;;-2.29;100.00;101834.03;5093345;28;20069;-79
2024/01/19 06:23:06;;;;;;;4.88;1.08;;;;;;;-2.36;100.00;101830.69;5093187;28;20024;-80
2024/01/19 06:25:32;;;;;;;3.17;0.70;;;;;;;-2.40;100.00;101845.53;5093220;28;20030;-80
2024/01/19 06:27:57;;;;;;;14.15;2.13;;;;;;;-2.46;100.00;101850.88;5092832;28;20062;-80
2024/01/19 06:30:22;;;;;;;3.47;0.82;;;;;;;-2.55;100.00;101851.06;5092992;28;20051;-79
2024/01/19 06:32:48;;;;;;;2.60;1.00;;;;;;;-2.64;100.00;101851.22;5093075;28;20023;-79
2024/01/19 06:35:13;;;;;;;3.00;1.27;;;;;;;-2.76;100.00;101857.53;5093002;28;20472;-79
2024/01/19 06:37:39;;;;;;;7.55;1.50;;;;;;;-2.87;100.00;101860.34;5092957;28;20364;-79
2024/01/19 06:40:07;;;;;;;2.35;0.80;;;;;;;-2.98;100.00;101867.50;5093137;28;20317;-80
2024/01/19 06:42:32;;;;;;;2.38;1.10;;;;;;;-3.07;100.00;101878.94;5092863;28;20040;-79
2024/01/19 06:44:58;;;;;;;4.50;1.10;;;;;;;-3.13;100.00;101876.44;5093137;28;20040;-80
2024/01/19 06:47:24;;;;;;;3.03;0.90;;;;;;;-3.20;100.00;101878.28;5092689;28;20085;-80
2024/01/19 06:49:50;;;;;;;5.70;1.58;;;;;;;-3.26;100.00;101879.22;5092814;28;20449;-80
2024/01/19 06:52:15;;;;;;;6.18;1.55;;;;;;;-3.29;100.00;101878.44;5093248;28;20054;-80
2024/01/19 06:54:41;;;;;;;8.35;1.30;;;;;;;-3.34;100.00;101888.03;5092827;28;20449;-79
2024/01/19 06:57:06;;;;;;;4.15;1.10;;;;;;;-3.38;100.00;101884.63;5092551;28;20064;-80
2024/01/19 06:59:32;;;;;;;3.75;1.13;;;;;;;-3.42;100.00;101891.63;5092403;28;20059;-80
2024/01/19 07:01:57;;;;;;;6.47;1.23;;;;;;;-3.45;100.00;101894.28;5093020;28;20356;-80
2024/01/19 07:04:24;;;;;;;7.07;2.03;;;;;;;-3.46;100.00;101891.69;5092743;28;20032;-80
2024/01/19 07:06:49;;;;;;;4.82;1.60;;;;;;;-3.46;100.00;101891.69;5093076;28;20415;-80
2024/01/19 07:09:17;;;;;;;6.95;1.83;;;;;;;-3.45;100.00;101901.22;5092475;28;20031;-80
2024/01/19 07:11:42;;;;;;;6.50;1.50;;;;;;;-3.48;100.00;101903.88;5092368;28;20114;-80
2024/01/19 07:14:08;;;;;;;5.97;1.92;;;;;;;-3.52;100.00;101902.19;5092480;28;20124;-80
2024/01/19 07:16:37;;;;;;;3.67;1.63;;;;;;;-3.59;100.00;101907.47;5092730;28;20101;-80
2024/01/19 07:19:03;;;;;;;5.03;1.55;;;;;;;-3.67;100.00;101908.47;5092201;28;20036;-80
2024/01/19 07:21:29;;;;;;;5.15;1.35;;;;;;;-3.70;100.00;101916.31;5091918;28;20489;-80
2024/01/19 07:23:54;;;;;;;1.65;1.30;;;;;;;-3.75;100.00;101922.47;5092421;28;20024;-80
2024/01/19 07:26:19;;;;;;;8.18;2.10;;;;;;;-3.79;100.00;101920.78;5091847;28;20115;-80
2024/01/19 07:28:45;;;;;;;4.00;1.65;;;;;;;-3.77;100.00;101928.56;5073861;28;20097;-80
2024/01/19 07:31:10;;;;;;;9.55;1.83;;;;;;;-3.75;100.00;101938.09;5091575;28;20051;-80
2024/01/19 07:33:36;;;;;;;7.95;2.65;;;;;;;-3.69;100.00;101938.88;5092155;28;20467;-80
2024/01/19 07:36:02;;;;;;;5.53;2.08;;;;;;;-3.54;100.00;101946.44;5092309;28;20176;-79
2024/01/19 07:38:27;;;;;;;11.65;2.30;;;;;;;-3.34;100.00;101948.78;5092562;28;20025;-79
2024/01/19 07:40:53;;;;;;;10.68;2.70;;;;;;;-3.15;100.00;101954.56;5092153;28;20468;-79
2024/01/19 07:43:18;;;;;;;9.82;2.65;;;;;;;-2.94;100.00;101957.69;5091990;28;20032;-79
2024/01/19 07:45:44;;;;;;;11.85;2.55;;;;;;;-2.77;100.00;101960.03;5091940;28;20054;-80
2024/01/19 07:48:09;;;;;;;6.28;2.40;;;;;;;-2.60;100.00;101973.63;5091998;28;20109;-79
2024/01/19 07:50:34;;;;;;;8.93;2.58;;;;;;;-2.41;100.00;101975.91;5074029;28;20028;-80
2024/01/19 07:53:00;;;;;;;10.23;2.63;;;;;;;-2.21;100.00;101975.53;5091942;28;20050;-79
2024/01/19 07:55:25;;;;;;;14.13;2.70;;;;;;;-1.97;100.00;101988.13;5091634;28;20379;-79
2024/01/19 07:57:50;;;;;;;11.35;3.35;;;;;;;-1.73;100.00;101998.94;5092157;28;20108;-78
2024/01/19 08:00:16;;;;;;;8.70;2.90;;;;;;;-1.61;100.00;101995.22;5091921;28;20479;-79
2024/01/19 08:02:43;;;;;;;10.23;3.10;;;;;;;-1.53;100.00;101989.84;5091846;28;20428;-77
2024/01/19 08:05:09;;;;;;;14.25;3.13;;;;;;;-1.47;100.00;101994.91;5091891;28;20020;-78
2024/01/19 08:07:34;;;;;;;8.00;3.58;;;;;;;-1.45;100.00;101987.91;5091271;28;20111;-79
2024/01/19 08:10:00;;;;;;;9.93;3.35;;;;;;;-1.46;100.00;101999.25;5076352;28;20035;-79
2024/01/19 08:12:25;;;;;;;5.95;2.67;;;;;;;-1.49;100.00;101997.56;5095378;28;20126;-81
2024/01/19 08:14:52;;;;;;;12.68;2.95;;;;;;;-1.46;100.00;101999.25;5094849;28;20035;-80
2024/01/19 08:17:17;;;;;;;10.75;3.53;;;;;;;-1.40;100.00;101996.50;5094305;28;20032;-80
2024/01/19 08:19:42;;;;;;;12.85;3.70;;;;;;;-1.30;100.00;102003.25;5076525;28;20031;-79
2024/01/19 08:22:08;;;;;;;7.60;3.10;;;;;;;-1.22;100.00;102004.81;5075638;28;20114;-79
2024/01/19 08:24:37;;;;;;;5.63;3.13;;;;;;;-1.19;100.00;102008.22;5094404;28;20059;-79
2024/01/19 08:27:03;;;;;;;12.70;4.35;;;;;;;-1.17;100.00;102008.19;5095732;28;20054;-81
2024/01/19 08:29:28;;;;;;;13.68;5.35;;;;;;;-1.15;100.00;102014.22;5095795;28;20114;-81
2024/01/19 08:31:53;;;;;;;12.38;4.20;;;;;;;-1.11;100.00;102015.88;5095649;28;20474;-82
2024/01/19 08:34:19;;;;;;;12.20;4.50;;;;;;;-1.07;100.00;102028.84;5077635;28;20077;-80
2024/01/19 08:36:44;;;;;;;16.10;4.50;;;;;;;-1.02;100.00;102027.88;5095351;28;20035;-77
2024/01/19 08:39:10;;;;;;;14.77;4.03;;;;;;;-1.02;100.00;102026.13;5095743;28;20028;-78
2024/01/19 08:41:44;;;;;;;14.45;3.00;;;;;;;-1.02;100.00;102033.94;5095699;28;20120;-78
2024/01/19 08:44:10;;;;;;;11.88;3.20;;;;;;;-1.07;100.00;102030.59;5095425;28;20060;-79
2024/01/19 08:46:45;;;;;;;14.73;3.35;;;;;;;-1.12;100.00;102029.81;5076988;28;20122;-82
2024/01/19 08:49:12;;;;;;;13.35;3.22;;;;;;;-1.19;100.00;102036.97;5095145;28;20020;-79
2024/01/19 08:51:38;;;;;;;9.55;3.28;;;;;;;-1.23;100.00;102037.91;5094921;28;20035;-80
2024/01/19 08:54:04;;;;;;;14.60;4.03;;;;;;;-1.29;100.00;102036.28;5094657;28;20046;-80
2024/01/19 08:56:29;;;;;;;16.45;4.25;;;;;;;-1.32;100.00;102032.91;5095341;28;20031;-84
2024/01/19 08:58:57;;;;;;;14.13;3.72;;;;;;;-1.34;100.00;102045.13;5094846;28;20038;-79
2024/01/19 09:01:23;;;;;;;12.95;3.42;;;;;;;-1.33;100.00;102039.00;5094891;28;20115;-79
2024/01/19 09:03:48;;;;;;;20.63;3.92;;;;;;;-1.26;100.00;102051.88;5076319;28;20063;-79
2024/01/19 09:06:14;;;;;;;13.25;3.60;;;;;;;-1.07;100.00;102047.13;5094278;28;20086;-77
2024/01/19 09:08:43;;;;;;;11.85;4.00;;;;;;;-0.85;100.00;102045.75;5094489;28;20396;-79
2024/01/19 09:11:10;;;;;;;13.70;3.90;;;;;;;-0.66;100.00;102054.88;5094337;28;20051;-80
2024/01/19 09:13:37;;;;;;;11.93;4.35;;;;;;;-0.46;100.00;102064.00;5094255;28;20031;-77
2024/01/19 09:16:02;;;;;;;15.23;4.28;;;;;;;-0.26;100.00;102063.50;5094353;28;20024;-77
2024/01/19 09:18:28;;;;;;;21.83;4.85;;;;;;;-0.03;100.00;102066.38;5076135;28;20054;-77
2024/01/19 09:20:53;;;;;;;14.13;4.65;;;;;;;0.19;100.00;102065.78;5094854;28;20178;-79
2024/01/19 09:23:18;;;;;;;20.98;5.10;;;;;;;0.39;100.00;102074.84;5096390;28;20032;-80
2024/01/19 09:25:44;;;;;;;11.18;4.20;;;;;;;0.52;100.00;102071.88;5094152;28;20068;-80
2024/01/19 09:28:09;;;;;;;22.10;4.93;;;;;;;0.58;100.00;102076.03;5076680;28;20032;-79
2024/01/19 09:30:34;;;;;;;20.77;4.25;;;;;;;0.62;100.00;102077.69;5094846;28;20118;-78
2024/01/19 09:33:00;;;;;;;10.88;3.72;;;;;;;0.68;100.00;102081.88;5095286;28;20046;-81
2024/01/19 09:35:25;;;;;;;13.80;3.45;;;;;;;0.75;100.00;102072.06;5095509;28;20485;-81
2024/01/19 09:37:51;;;;;;;10.80;3.28;;;;;;;0.94;100.00;102078.50;5096021;28;20020;-80
2024/01/19 09:40:19;;;;;;;16.33;2.67;;;;;;;1.09;100.00;102077.19;5095103;28;20028;-81
2024/01/19 09:42:45;;;;;;;13.90;2.85;;;;;;;1.23;100.00;102085.44;5094708;28;20069;-83
2024/01/19 09:45:17;;;;;;;11.07;1.83;;;;;;;1.40;100.00;102078.81;5077228;28;20028;-83
2024/01/19 09:47:52;;;;;;;13.52;1.92;;;;;;;1.61;100.00;102074.63;5077626;28;20335;-83
2024/01/19 09:50:19;;;;;;;7.93;1.70;;;;;;;1.82;100.00;102069.56;5077231;28;20356;-83
2024/01/19 09:53:00;;;;;;;10.73;2.42;;;;;;;2.08;100.00;102073.94;5096373;28;20038;-83
2024/01/19 09:55:27;;;;;;;8.93;1.95;;;;;;;2.30;100.00;102071.41;5095425;28;20047;-82
2024/01/19 09:57:54;;;;;;;10.35;1.98;;;;;;;2.45;100.00;102076.09;5095090;28;20435;-81
2024/01/19 10:00:20;;;;;;;9.40;2.53;;;;;;;2.53;100.00;102075.78;5094584;28;20066;-80
2024/01/19 10:02:51;;;;;;;8.02;2.33;;;;;;;2.63;100.00;102081.59;5094545;28;20063;-82
2024/01/19 10:05:18;;;;;;;14.73;2.15;;;;;;;2.73;100.00;102082.06;5076392;28;20023;-83
2024/01/19 10:07:49;;;;;;;9.82;2.25;;;;;;;2.80;100.00;102087.03;5095124;28;20046;-84
2024/01/19 10:10:19;;;;;;;6.38;1.90;;;;;;;2.85;100.00;102092.13;5095755;28;20059;-83
2024/01/19 10:12:44;;;;;;;9.10;2.22;;;;;;;2.98;100.00;102095.16;5076216;28;20035;-82
2024/01/19 10:15:14;;;;;;;5.43;2.10;;;;;;;3.04;100.00;102094.91;5076484;28;20028;-82
2024/01/19 10:17:41;;;;;;;14.05;2.97;;;;;;;3.10;100.00;102094.66;5076190;28;20344;-83
2024/01/19 10:20:10;;;;;;;11.65;2.20;;;;;;;3.20;100.00;102102.22;5077028;28;20432;-85
2024/01/19 10:22:36;;;;;;;5.50;1.90;;;;;;;3.40;100.00;102098.78;5094652;28;20028;-82
2024/01/19 10:25:04;;;;;;;16.50;2.75;;;;;;;3.51;100.00;102105.31;5094530;28;20074;-81
2024/01/19 10:27:51;;;;;;;10.85;2.40;;;;;;;3.60;100.00;102105.84;5094457;28;20060;-84
2024/01/19 10:30:18;;;;;;;8.48;2.53;;;;;;;3.60;100.00;102111.13;5093598;28;20027;-83
2024/01/19 10:32:45;;;;;;;6.85;1.90;;;;;;;3.60;100.00;102109.34;5091792;28;20080;-83
2024/01/19 10:35:17;;;;;;;10.43;2.63;;;;;;;3.64;100.00;102121.47;5092748;28;20024;-80
2024/01/19 10:37:43;;;;;;;8.43;2.33;;;;;;;3.67;100.00;102112.56;5092692;28;20028;-85
2024/01/19 10:40:26;;;;;;;9.40;2.20;;;;;;;3.70;100.00;102117.72;5075043;28;20031;-85
2024/01/19 10:42:56;;;;;;;9.85;2.17;;;;;;;3.76;100.00;102124.50;5093164;28;20326;-84
2024/01/19 10:45:29;;;;;;;9.30;2.70;;;;;;;3.83;100.00;102129.44;5093372;28;20028;-82
2024/01/19 10:48:00;;;;;;;7.55;2.10;;;;;;;3.83;100.00;102128.59;5077101;28;20039;-85
2024/01/19 10:50:28;;;;;;;6.40;2.05;;;;;;;3.84;100.00;102128.53;5076498;28;20114;-86
2024/01/19 10:52:54;;;;;;;4.95;2.00;;;;;;;3.88;100.00;102139.78;5094824;28;20032;-86
2024/01/19 10:55:25;;;;;;;6.32;2.03;;;;;;;3.84;100.00;102136.44;5093804;28;20048;-86
2024/01/19 10:58:11;;;;;;;10.07;2.20;;;;;;;3.89;100.00;102133.63;5094114;28;20036;-84
2024/01/19 11:00:38;;;;;;;14.07;2.42;;;;;;;4.02;100.00;102133.97;5093721;28;20032;-85
2024/01/19 11:03:04;;;;;;;7.28;2.40;;;;;;;4.26;100.00;102141.75;5093608;28;20028;-85
2024/01/19 11:05:30;;;;;;;8.10;2.63;;;;;;;4.50;100.00;102145.94;5093601;28;20028;-79
2024/01/19 11:07:59;;;;;;;11.88;2.28;;;;;;;4.72;100.00;102137.94;5092653;28;20127;-85
2024/01/19 11:10:26;;;;;;;7.10;2.28;;;;;;;4.87;100.00;102144.28;5092216;28;20039;-86
2024/01/19 11:12:56;;;;;;;9.02;2.10;;;;;;;4.88;100.00;102135.44;5092076;28;20077;-85
2024/01/19 11:15:30;;;;;;;8.80;2.63;;;;;;;4.98;100.00;102140.31;5092370;28;20095;-84